Time;durP1;ratioP1;P1;durP2;ratioP2;P2;SDS_P1;SDS_P2;PMS_P1;PMS_P2;Temp;Humidity;BMP_temperature;BMP_pressure;BME280_temperature;BME280_humidity;BME280_pressure;Samples;Min_cycle;Max_cycle;Signal;HPM_P1;HPM_P2
2023/07/04 00:00:30;;;;;;;16.05;3.05;;;;;;;;;;5091628;28;20040;-75
2023/07/04 00:02:56;;;;;;;12.88;2.67;;;;;;;;;;5105326;28;20062;-74
2023/07/04 00:05:23;;;;;;;8.70;2.58;;;;;;;;;;5107322;28;20089;-74
2023/07/04 00:07:49;;;;;;;9.50;2.70;;;;;;;;;;5091937;28;20043;-74
2023/07/04 00:10:15;;;;;;;10.77;2.55;;;;;;;;;;5095446;28;20150;-74
2023/07/04 00:12:41;;;;;;;10.32;2.60;;;;;;;;;;5112660;28;20132;-74
2023/07/04 00:15:09;;;;;;;10.85;2.75;;;;;;;;;;5112255;28;20126;-74
2023/07/04 00:17:35;;;;;;;9.57;2.47;;;;;;;;;;5112448;28;20036;-74
2023/07/04 00:20:03;;;;;;;10.93;2.58;;;;;;;;;;5112509;28;20051;-74
2023/07/04 00:22:29;;;;;;;10.50;2.58;;;;;;;;;;5109014;28;20484;-75
2023/07/04 00:24:57;;;;;;;10.95;2.70;;;;;;;;;;5095226;28;20079;-75
2023/07/04 00:27:23;;;;;;;10.77;2.88;;;;;;;;;;5096002;28;20047;-75
2023/07/04 00:29:50;;;;;;;10.13;2.83;;;;;;;;;;5103909;28;20154;-75
2023/07/04 00:32:16;;;;;;;11.05;3.10;;;;;;;;;;5116457;27;20089;-75
2023/07/04 00:34:45;;;;;;;12.85;3.10;;;;;;;;;;5115853;28;20119;-75
2023/07/04 00:37:14;;;;;;;12.20;3.05;;;;;;;;;;5113913;28;20498;-75
2023/07/04 00:39:40;;;;;;;6.80;2.60;;;;;;;;;;5097623;28;20044;-75
2023/07/04 00:42:08;;;;;;;12.82;2.70;;;;;;;;;;5099547;28;20084;-75
2023/07/04 00:44:37;;;;;;;8.57;2.80;;;;;;;;;;5110416;28;20040;-75
2023/07/04 00:47:15;;;;;;;12.93;2.67;;;;;;;;;;5093218;28;20044;-75
2023/07/04 00:49:43;;;;;;;11.88;2.63;;;;;;;;;;5094198;28;20040;-75
2023/07/04 00:52:16;;;;;;;11.98;2.70;;;;;;;;;;5096022;28;20051;-75
2023/07/04 00:54:45;;;;;;;7.50;2.40;;;;;;;;;;5115034;28;20035;-75
2023/07/04 00:57:13;;;;;;;8.20;2.50;;;;;;;;;;5113061;28;20044;-75
2023/07/04 00:59:43;;;;;;;14.70;3.00;;;;;;;;;;5101558;28;20048;-76
2023/07/04 01:02:10;;;;;;;11.80;2.78;;;;;;;;;;5096111;28;20044;-75
2023/07/04 01:04:36;;;;;;;11.38;2.75;;;;;;;;;;5097205;28;20040;-75
2023/07/04 01:07:10;;;;;;;10.23;2.67;;;;;;;;;;5099872;28;20445;-75
2023/07/04 01:09:37;;;;;;;11.65;2.63;;;;;;;;;;5094829;28;20085;-75
2023/07/04 01:12:04;;;;;;;8.73;2.50;;;;;;;;;;5094641;28;20048;-75
2023/07/04 01:14:30;;;;;;;9.18;2.67;;;;;;;;;;5094613;28;20044;-75
2023/07/04 01:16:56;;;;;;;10.27;2.70;;;;;;;;;;5094060;28;20435;-75
2023/07/04 01:19:30;;;;;;;15.90;2.88;;;;;;;;;;5097741;28;20491;-75
2023/07/04 01:22:12;;;;;;;8.93;2.80;;;;;;;;;;5114690;28;20050;-75
2023/07/04 01:24:59;;;;;;;9.20;2.50;;;;;;;;;;5112071;28;20083;-75
2023/07/04 01:27:26;;;;;;;9.27;2.67;;;;;;;;;;5099390;28;20082;-75
2023/07/04 01:29:54;;;;;;;11.15;2.63;;;;;;;;;;5110039;28;20070;-75
2023/07/04 01:32:21;;;;;;;9.30;2.67;;;;;;;;;;5101120;28;20059;-75
2023/07/04 01:34:47;;;;;;;6.65;2.17;;;;;;;;;;5114332;28;20112;-74
2023/07/04 01:37:14;;;;;;;7.45;2.50;;;;;;;;;;5114585;28;20040;-75
2023/07/04 01:39:40;;;;;;;9.13;2.70;;;;;;;;;;5114093;28;20039;-75
2023/07/04 01:42:07;;;;;;;11.18;2.70;;;;;;;;;;5114401;28;20373;-75
2023/07/04 01:44:33;;;;;;;8.13;2.40;;;;;;;;;;5111838;28;20043;-75
2023/07/04 01:47:00;;;;;;;7.97;2.33;;;;;;;;;;5097408;28;20114;-75
2023/07/04 01:49:26;;;;;;;7.13;2.35;;;;;;;;;;5094095;28;20036;-75
2023/07/04 01:51:52;;;;;;;9.30;2.28;;;;;;;;;;5114087;28;20396;-75
2023/07/04 01:54:18;;;;;;;9.90;2.72;;;;;;;;;;5106168;28;20032;-75
2023/07/04 01:56:47;;;;;;;8.45;2.80;;;;;;;;;;5091318;28;20051;-75
2023/07/04 01:59:13;;;;;;;13.55;2.83;;;;;;;;;;5105827;28;20122;-75
2023/07/04 02:01:39;;;;;;;8.77;2.80;;;;;;;;;;5093113;28;20073;-75
2023/07/04 02:04:05;;;;;;;6.03;2.60;;;;;;;;;;5100864;28;20039;-75
2023/07/04 02:06:31;;;;;;;7.07;2.83;;;;;;;;;;5112533;28;20056;-75
2023/07/04 02:08:57;;;;;;;8.35;2.55;;;;;;;;;;5113898;28;20492;-75
2023/07/04 02:11:23;;;;;;;7.40;2.60;;;;;;;;;;5113995;28;20051;-75
2023/07/04 02:13:49;;;;;;;9.95;2.50;;;;;;;;;;5113008;28;20484;-75
2023/07/04 02:16:16;;;;;;;10.68;3.15;;;;;;;;;;5112818;28;20047;-75
2023/07/04 02:18:42;;;;;;;7.25;2.60;;;;;;;;;;5110370;28;20075;-76
2023/07/04 02:21:08;;;;;;;9.52;2.83;;;;;;;;;;5113057;28;20096;-75
2023/07/04 02:23:34;;;;;;;14.75;3.00;;;;;;;;;;5111711;28;20051;-75
2023/07/04 02:26:00;;;;;;;7.15;2.40;;;;;;;;;;5107914;28;20040;-75
2023/07/04 02:28:26;;;;;;;10.93;2.90;;;;;;;;;;5093381;28;20044;-75
2023/07/04 02:30:53;;;;;;;10.07;2.80;;;;;;;;;;5112361;28;20040;-75
2023/07/04 02:33:19;;;;;;;8.57;2.60;;;;;;;;;;5113953;28;20039;-75
2023/07/04 02:35:46;;;;;;;7.63;2.72;;;;;;;;;;5098866;28;20110;-75
2023/07/04 02:38:13;;;;;;;8.15;2.65;;;;;;;;;;5092070;28;20473;-75
2023/07/04 02:40:43;;;;;;;9.73;2.80;;;;;;;;;;5094536;28;20044;-75
2023/07/04 02:43:09;;;;;;;6.90;2.95;;;;;;;;;;5093399;28;20542;-75
2023/07/04 02:45:35;;;;;;;11.55;3.15;;;;;;;;;;5104963;28;20035;-75
2023/07/04 02:48:02;;;;;;;6.93;2.85;;;;;;;;;;5094121;28;20036;-75
2023/07/04 02:50:28;;;;;;;10.52;2.72;;;;;;;;;;5091222;28;20048;-75
2023/07/04 02:52:54;;;;;;;10.32;2.70;;;;;;;;;;5102491;28;20380;-75
2023/07/04 02:55:20;;;;;;;6.85;2.90;;;;;;;;;;5110977;28;20484;-75
2023/07/04 02:57:46;;;;;;;8.63;2.85;;;;;;;;;;5110961;28;20044;-75
2023/07/04 03:00:12;;;;;;;6.95;2.70;;;;;;;;;;5105256;28;20438;-75
2023/07/04 03:02:38;;;;;;;8.18;3.00;;;;;;;;;;5101916;28;20040;-75
2023/07/04 03:05:05;;;;;;;8.88;3.00;;;;;;;;;;5096476;28;20488;-75
2023/07/04 03:07:31;;;;;;;7.93;3.40;;;;;;;;;;5104237;28;20123;-75
2023/07/04 03:09:57;;;;;;;9.30;3.17;;;;;;;;;;5092943;28;20044;-75
2023/07/04 03:12:23;;;;;;;7.65;3.15;;;;;;;;;;5093024;28;20047;-75
2023/07/04 03:14:49;;;;;;;6.25;3.10;;;;;;;;;;5093258;28;20092;-75
2023/07/04 03:17:15;;;;;;;8.05;2.88;;;;;;;;;;5093873;28;20044;-75
2023/07/04 03:19:41;;;;;;;8.23;2.97;;;;;;;;;;5090958;28;20089;-75
2023/07/04 03:22:08;;;;;;;7.25;2.92;;;;;;;;;;5091377;28;20052;-75
2023/07/04 03:24:34;;;;;;;8.82;2.70;;;;;;;;;;5096338;28;20059;-74
2023/07/04 03:27:00;;;;;;;8.13;2.85;;;;;;;;;;5104088;28;20070;-75
2023/07/04 03:29:26;;;;;;;7.63;2.70;;;;;;;;;;5100021;28;20044;-75
2023/07/04 03:31:52;;;;;;;7.57;2.72;;;;;;;;;;5108449;28;20085;-75
2023/07/04 03:34:18;;;;;;;9.43;2.60;;;;;;;;;;5111743;28;20156;-75
2023/07/04 03:36:44;;;;;;;7.40;2.40;;;;;;;;;;5112194;28;20039;-75
2023/07/04 03:39:11;;;;;;;7.95;2.30;;;;;;;;;;5103209;28;20459;-75
2023/07/04 03:41:37;;;;;;;6.55;2.70;;;;;;;;;;5103904;28;20408;-75
2023/07/04 03:44:04;;;;;;;6.85;2.40;;;;;;;;;;5100998;28;20036;-75
2023/07/04 03:46:30;;;;;;;6.82;2.30;;;;;;;;;;5100829;28;20047;-75
2023/07/04 03:48:56;;;;;;;4.78;2.08;;;;;;;;;;5107485;28;20051;-75
2023/07/04 03:51:22;;;;;;;7.43;2.25;;;;;;;;;;5111526;28;20040;-76
2023/07/04 03:53:48;;;;;;;7.63;2.15;;;;;;;;;;5111114;28;20039;-74
2023/07/04 03:56:15;;;;;;;5.18;1.98;;;;;;;;;;5113842;28;20043;-74
2023/07/04 03:58:42;;;;;;;6.82;2.50;;;;;;;;;;5113529;28;20375;-74
2023/07/04 04:01:08;;;;;;;6.38;2.20;;;;;;;;;;5108196;28;20456;-74
2023/07/04 04:03:38;;;;;;;5.75;2.00;;;;;;;;;;5095319;28;20043;-74
2023/07/04 04:06:07;;;;;;;6.22;2.08;;;;;;;;;;5096102;28;20048;-74
2023/07/04 04:08:34;;;;;;;6.25;1.80;;;;;;;;;;5096104;28;20185;-74
2023/07/04 04:11:19;;;;;;;7.50;2.05;;;;;;;;;;5104775;28;20494;-74
2023/07/04 04:14:03;;;;;;;5.60;2.15;;;;;;;;;;5114898;28;20042;-74
2023/07/04 04:16:29;;;;;;;6.18;1.85;;;;;;;;;;5097323;28;20047;-74
2023/07/04 04:18:55;;;;;;;4.82;2.30;;;;;;;;;;5110591;28;20503;-74
2023/07/04 04:21:21;;;;;;;6.20;1.95;;;;;;;;;;5110996;28;20036;-76
2023/07/04 04:23:48;;;;;;;6.03;2.40;;;;;;;;;;5085905;28;20056;-74
2023/07/04 04:26:15;;;;;;;4.68;1.98;;;;;;;;;;5110500;28;20040;-75
2023/07/04 04:28:41;;;;;;;6.00;2.10;;;;;;;;;;5104123;28;20403;-74
2023/07/04 04:31:08;;;;;;;7.18;2.20;;;;;;;;;;5114139;28;20044;-74
2023/07/04 04:33:35;;;;;;;5.47;2.03;;;;;;;;;;5115538;28;20039;-75
2023/07/04 04:36:01;;;;;;;4.38;2.20;;;;;;;;;;5116045;28;20057;-74
2023/07/04 04:38:27;;;;;;;6.43;2.00;;;;;;;;;;5115907;28;20044;-74
2023/07/04 04:40:56;;;;;;;6.35;2.45;;;;;;;;;;5113878;28;20071;-74
2023/07/04 04:43:23;;;;;;;6.55;2.35;;;;;;;;;;5100267;28;20164;-74
2023/07/04 04:45:49;;;;;;;6.78;2.45;;;;;;;;;;5115464;28;20133;-74
2023/07/04 04:48:19;;;;;;;10.95;2.47;;;;;;;;;;5115203;28;20035;-74
2023/07/04 04:50:46;;;;;;;7.03;2.22;;;;;;;;;;5112566;28;20054;-75
2023/07/04 04:53:14;;;;;;;8.27;2.58;;;;;;;;;;5105853;28;20119;-75
2023/07/04 04:55:42;;;;;;;5.30;2.33;;;;;;;;;;5093567;28;20055;-75
2023/07/04 04:58:08;;;;;;;7.15;2.97;;;;;;;;;;5094228;28;20169;-77
2023/07/04 05:00:34;;;;;;;7.10;2.90;;;;;;;;;;5109012;28;20044;-76
2023/07/04 05:03:00;;;;;;;5.85;2.60;;;;;;;;;;5113741;28;20096;-77
2023/07/04 05:05:26;;;;;;;8.50;2.70;;;;;;;;;;5095808;28;20122;-76
2023/07/04 05:07:52;;;;;;;6.75;2.90;;;;;;;;;;5094226;28;20040;-76
2023/07/04 05:10:18;;;;;;;7.82;2.53;;;;;;;;;;5094446;28;20044;-77
2023/07/04 05:12:44;;;;;;;8.15;2.70;;;;;;;;;;5093388;28;20040;-77
2023/07/04 05:15:10;;;;;;;10.43;2.88;;;;;;;;;;5093266;28;20079;-76
2023/07/04 05:17:37;;;;;;;9.70;3.00;;;;;;;;;;5093857;28;20145;-76
2023/07/04 05:20:05;;;;;;;9.80;3.03;;;;;;;;;;5094334;28;20047;-76
2023/07/04 05:22:31;;;;;;;10.55;3.42;;;;;;;;;;5107905;28;20138;-76
2023/07/04 05:24:57;;;;;;;7.63;3.20;;;;;;;;;;5108601;28;20051;-77
2023/07/04 05:27:23;;;;;;;9.60;3.38;;;;;;;;;;5094347;28;20565;-77
2023/07/04 05:29:49;;;;;;;15.13;3.70;;;;;;;;;;5093122;28;20134;-77
2023/07/04 05:32:15;;;;;;;7.93;3.20;;;;;;;;;;5094600;28;20123;-78
2023/07/04 05:34:41;;;;;;;10.68;3.50;;;;;;;;;;5094694;28;20040;-77
2023/07/04 05:37:08;;;;;;;7.18;3.38;;;;;;;;;;5094511;28;20419;-78
2023/07/04 05:39:34;;;;;;;8.93;3.70;;;;;;;;;;5094464;28;20112;-77
2023/07/04 05:42:00;;;;;;;10.77;3.17;;;;;;;;;;5094254;28;20123;-77
2023/07/04 05:44:26;;;;;;;8.18;3.30;;;;;;;;;;5094201;28;20048;-77
2023/07/04 05:46:53;;;;;;;8.20;3.22;;;;;;;;;;5094234;28;20076;-77
2023/07/04 05:49:19;;;;;;;8.10;3.40;;;;;;;;;;5094284;28;20050;-77
2023/07/04 05:51:45;;;;;;;8.07;3.25;;;;;;;;;;5095489;28;20127;-77
2023/07/04 05:54:12;;;;;;;8.65;3.10;;;;;;;;;;5112088;28;20050;-77
2023/07/04 05:56:38;;;;;;;10.82;3.25;;;;;;;;;;5114447;28;20050;-77
2023/07/04 05:59:04;;;;;;;8.63;2.72;;;;;;;;;;5114415;28;20047;-77
2023/07/04 06:01:42;;;;;;;7.97;2.63;;;;;;;;;;5106551;28;20051;-77
2023/07/04 06:04:09;;;;;;;9.02;3.00;;;;;;;;;;5074312;28;20052;-77
2023/07/04 06:06:42;;;;;;;7.40;2.50;;;;;;;;;;5102324;28;20051;-77
2023/07/04 06:09:13;;;;;;;7.47;2.70;;;;;;;;;;5114094;28;20079;-77
2023/07/04 06:11:45;;;;;;;6.82;2.78;;;;;;;;;;5113062;28;20047;-77
2023/07/04 06:14:13;;;;;;;7.07;2.35;;;;;;;;;;5113023;28;20051;-77
2023/07/04 06:16:39;;;;;;;12.13;2.80;;;;;;;;;;5112485;28;20434;-77
2023/07/04 06:19:05;;;;;;;7.65;2.30;;;;;;;;;;5113683;28;20046;-77
2023/07/04 06:21:32;;;;;;;10.35;2.47;;;;;;;;;;5113891;28;20044;-77
2023/07/04 06:23:59;;;;;;;9.90;2.47;;;;;;;;;;5112287;28;20564;-77
2023/07/04 06:26:27;;;;;;;9.25;2.20;;;;;;;;;;5113856;28;20080;-77
2023/07/04 06:28:55;;;;;;;6.13;2.10;;;;;;;;;;5113740;28;20130;-77
2023/07/04 06:31:21;;;;;;;6.55;2.20;;;;;;;;;;5102639;28;20169;-77
2023/07/04 06:33:47;;;;;;;9.10;2.30;;;;;;;;;;5093401;28;20036;-77
2023/07/04 06:36:15;;;;;;;8.68;2.17;;;;;;;;;;5093823;28;20093;-77
2023/07/04 06:38:41;;;;;;;7.53;2.55;;;;;;;;;;5093936;28;20407;-76
2023/07/04 06:41:11;;;;;;;8.27;2.13;;;;;;;;;;5106909;28;20458;-75
2023/07/04 06:43:39;;;;;;;8.13;2.10;;;;;;;;;;5098479;28;20044;-76
2023/07/04 06:46:05;;;;;;;6.85;2.10;;;;;;;;;;5113849;28;20337;-75
2023/07/04 06:48:32;;;;;;;6.55;2.00;;;;;;;;;;5114223;28;20047;-77
2023/07/04 06:50:58;;;;;;;6.43;2.03;;;;;;;;;;5113445;28;20047;-77
2023/07/04 06:53:24;;;;;;;5.97;2.10;;;;;;;;;;5104754;28;20054;-77
2023/07/04 06:55:50;;;;;;;7.15;2.03;;;;;;;;;;5091397;28;20047;-77
2023/07/04 06:58:16;;;;;;;8.93;2.10;;;;;;;;;;5094895;28;20095;-76
2023/07/04 07:00:42;;;;;;;7.95;2.15;;;;;;;;;;5111670;28;20047;-75
2023/07/04 07:03:09;;;;;;;8.95;2.25;;;;;;;;;;5113280;28;20377;-75
2023/07/04 07:05:38;;;;;;;8.07;2.25;;;;;;;;;;5113369;28;20050;-76
2023/07/04 07:08:04;;;;;;;5.70;1.65;;;;;;;;;;5113089;28;20051;-75
2023/07/04 07:10:31;;;;;;;7.25;1.75;;;;;;;;;;5106401;28;20047;-75
2023/07/04 07:12:58;;;;;;;7.28;2.08;;;;;;;;;;5060964;28;20055;-75
2023/07/04 07:15:25;;;;;;;6.03;1.80;;;;;;;;;;5092286;28;20093;-76
2023/07/04 07:17:51;;;;;;;9.25;1.90;;;;;;;;;;5093561;28;20093;-75
2023/07/04 07:20:18;;;;;;;6.75;1.98;;;;;;;;;;5112383;28;20108;-75
2023/07/04 07:22:46;;;;;;;4.72;1.80;;;;;;;;;;5112919;28;20402;-76
2023/07/04 07:25:12;;;;;;;5.93;1.63;;;;;;;;;;5112420;28;20052;-75
2023/07/04 07:27:38;;;;;;;6.40;2.00;;;;;;;;;;5107670;28;20049;-76
2023/07/04 07:30:04;;;;;;;5.95;1.80;;;;;;;;;;5111113;28;20051;-76
2023/07/04 07:32:31;;;;;;;7.68;1.80;;;;;;;;;;5112605;28;20123;-79
2023/07/04 07:34:57;;;;;;;6.03;1.85;;;;;;;;;;5112674;28;20428;-75
2023/07/04 07:37:23;;;;;;;7.90;1.95;;;;;;;;;;5112830;28;20104;-75
2023/07/04 07:39:51;;;;;;;5.32;1.98;;;;;;;;;;5110520;28;20123;-75
2023/07/04 07:42:17;;;;;;;4.07;1.83;;;;;;;;;;5106537;28;20044;-74
2023/07/04 07:44:43;;;;;;;9.15;2.00;;;;;;;;;;5106541;28;20123;-74
2023/07/04 07:47:12;;;;;;;4.78;1.65;;;;;;;;;;5110956;28;20050;-75
2023/07/04 07:49:38;;;;;;;5.60;1.70;;;;;;;;;;5110109;28;20087;-75
2023/07/04 07:52:05;;;;;;;5.30;1.52;;;;;;;;;;5112605;28;20130;-75
2023/07/04 07:54:31;;;;;;;6.47;1.63;;;;;;;;;;5112067;28;20132;-75
2023/07/04 07:56:57;;;;;;;7.65;2.05;;;;;;;;;;5110426;28;20050;-75
2023/07/04 07:59:23;;;;;;;4.93;1.70;;;;;;;;;;5110725;28;20396;-76
2023/07/04 08:01:51;;;;;;;4.30;1.70;;;;;;;;;;5110978;28;20052;-74
2023/07/04 08:04:18;;;;;;;5.03;1.70;;;;;;;;;;5112243;28;20047;-75
2023/07/04 08:06:45;;;;;;;5.35;1.55;;;;;;;;;;5112181;28;20043;-75
2023/07/04 08:09:13;;;;;;;4.75;1.80;;;;;;;;;;5112186;28;20048;-75
2023/07/04 08:11:39;;;;;;;4.68;1.80;;;;;;;;;;5111209;28;20118;-76
2023/07/04 08:14:05;;;;;;;3.53;1.65;;;;;;;;;;5110693;28;20043;-75
2023/07/04 08:16:40;;;;;;;4.93;1.80;;;;;;;;;;5112673;28;20135;-75
2023/07/04 08:19:06;;;;;;;4.40;1.58;;;;;;;;;;5112056;28;20089;-75
2023/07/04 08:21:33;;;;;;;4.57;1.52;;;;;;;;;;5112012;28;20055;-75
2023/07/04 08:23:59;;;;;;;4.70;1.50;;;;;;;;;;5112275;28;20052;-75
2023/07/04 08:26:26;;;;;;;6.65;1.80;;;;;;;;;;5112272;28;20471;-75
2023/07/04 08:28:53;;;;;;;6.40;1.80;;;;;;;;;;5111852;28;20507;-75
2023/07/04 08:31:20;;;;;;;5.30;1.88;;;;;;;;;;5112385;28;20044;-75
2023/07/04 08:33:47;;;;;;;7.78;1.83;;;;;;;;;;5112750;28;20430;-75
2023/07/04 08:36:14;;;;;;;6.80;2.00;;;;;;;;;;5093962;28;20459;-75
2023/07/04 08:38:40;;;;;;;4.25;1.70;;;;;;;;;;5112182;28;20436;-75
2023/07/04 08:41:33;;;;;;;7.00;1.88;;;;;;;;;;5113919;28;20044;-75
2023/07/04 08:44:02;;;;;;;7.65;1.90;;;;;;;;;;5111469;28;20097;-75
2023/07/04 08:46:43;;;;;;;7.40;1.73;;;;;;;;;;5097566;28;20054;-75
2023/07/04 08:49:16;;;;;;;6.43;1.65;;;;;;;;;;5097527;28;20094;-74
2023/07/04 08:51:46;;;;;;;8.02;2.05;;;;;;;;;;5115574;28;20410;-75
2023/07/04 08:54:12;;;;;;;8.35;2.08;;;;;;;;;;5114318;28;20095;-74
2023/07/04 08:56:39;;;;;;;8.02;2.00;;;;;;;;;;5115287;28;20079;-74
2023/07/04 08:59:07;;;;;;;8.55;2.05;;;;;;;;;;5115292;28;20094;-75
2023/07/04 09:02:06;;;;;;;6.85;2.08;;;;;;;;;;5093515;28;20055;-75
2023/07/04 09:04:51;;;;;;;8.40;2.22;;;;;;;;;;5055092;28;20100;-75
2023/07/04 09:07:45;;;;;;;6.35;2.10;;;;;;;;;;5095254;28;20428;-75
2023/07/04 09:10:20;;;;;;;9.68;2.40;;;;;;;;;;5075363;28;20048;-76
2023/07/04 09:12:46;;;;;;;;;;;;;;;;;;5095180;28;20060;-74
2023/07/04 09:15:13;;;;;;;;;;;;;;;;;;5095948;28;19935;-74
2023/07/04 09:17:40;;;;;;;10.18;2.50;;;;;;;;;;5097325;28;19926;-75
2023/07/04 09:20:08;;;;;;;13.10;2.03;;;;;;;;;;5113981;28;20035;-74
2023/07/04 09:22:35;;;;;;;11.38;2.60;;;;;;;;;;5110343;28;20139;-74
2023/07/04 09:25:02;;;;;;;7.75;2.28;;;;;;;;;;5102271;28;20048;-74
2023/07/04 09:27:29;;;;;;;9.82;2.30;;;;;;;;;;5097170;28;20097;-76
2023/07/04 09:29:56;;;;;;;8.43;2.40;;;;;;;;;;5095722;28;20040;-79
2023/07/04 09:32:22;;;;;;;9.13;2.45;;;;;;;;;;5094578;28;20036;-79
2023/07/04 09:34:53;;;;;;;7.68;2.33;;;;;;;;;;5094226;28;20048;-78
2023/07/04 09:37:22;;;;;;;7.72;2.60;;;;;;;;;;5103228;28;20047;-78
2023/07/04 09:39:54;;;;;;;6.57;2.15;;;;;;;;;;5095264;28;20369;-76
2023/07/04 09:42:22;;;;;;;12.68;2.38;;;;;;;;;;5104554;28;20062;-77
2023/07/04 09:44:49;;;;;;;9.05;2.30;;;;;;;;;;5104255;28;20036;-77
2023/07/04 09:47:19;;;;;;;12.45;2.38;;;;;;;;;;5081359;28;20083;-77
2023/07/04 09:49:46;;;;;;;12.15;2.22;;;;;;;;;;5076210;28;20437;-76
2023/07/04 09:52:16;;;;;;;6.15;2.20;;;;;;;;;;5095753;28;20089;-77
2023/07/04 09:54:42;;;;;;;10.88;2.50;;;;;;;;;;5094453;28;20378;-77
2023/07/04 09:57:25;;;;;;;9.45;2.13;;;;;;;;;;5076353;28;20523;-77
2023/07/04 09:59:51;;;;;;;9.73;2.30;;;;;;;;;;5093914;28;20404;-77
2023/07/04 10:02:20;;;;;;;7.22;1.90;;;;;;;;;;5094686;28;20501;-78
2023/07/04 10:04:49;;;;;;;6.60;2.13;;;;;;;;;;5111964;28;20044;-77
2023/07/04 10:07:16;;;;;;;7.32;2.22;;;;;;;;;;5110183;28;20051;-77
2023/07/04 10:09:44;;;;;;;7.75;2.00;;;;;;;;;;5093388;28;20127;-77
2023/07/04 10:12:11;;;;;;;10.57;2.40;;;;;;;;;;5075760;28;20105;-77
2023/07/04 10:14:45;;;;;;;11.05;2.30;;;;;;;;;;5093650;28;20054;-77
2023/07/04 10:17:21;;;;;;;13.60;2.42;;;;;;;;;;5093922;28;20052;-77
2023/07/04 10:19:48;;;;;;;10.63;2.00;;;;;;;;;;5074834;28;20480;-77
2023/07/04 10:22:23;;;;;;;11.32;2.35;;;;;;;;;;5093725;28;20040;-77
2023/07/04 10:24:50;;;;;;;6.93;2.00;;;;;;;;;;5094909;28;20874;-77
2023/07/04 10:27:16;;;;;;;7.50;1.98;;;;;;;;;;5100953;28;20293;-77
2023/07/04 10:29:46;;;;;;;7.13;1.92;;;;;;;;;;5095131;28;20055;-77
2023/07/04 10:32:13;;;;;;;8.60;2.03;;;;;;;;;;5095395;28;20043;-77
2023/07/04 10:34:39;;;;;;;4.90;1.73;;;;;;;;;;5113443;28;20055;-77
2023/07/04 10:37:07;;;;;;;7.38;2.45;;;;;;;;;;5095548;28;20105;-77
2023/07/04 10:39:35;;;;;;;6.15;2.03;;;;;;;;;;5093585;28;20043;-77
2023/07/04 10:42:01;;;;;;;8.98;2.13;;;;;;;;;;5100686;28;20408;-77
2023/07/04 10:44:30;;;;;;;7.03;2.03;;;;;;;;;;5092627;28;20054;-77
2023/07/04 10:46:58;;;;;;;6.28;1.77;;;;;;;;;;5090350;28;20051;-78
2023/07/04 10:49:26;;;;;;;6.03;1.95;;;;;;;;;;5060928;28;20469;-78
2023/07/04 10:51:56;;;;;;;5.20;1.80;;;;;;;;;;5092872;28;20047;-78
2023/07/04 10:54:22;;;;;;;7.00;2.00;;;;;;;;;;5112670;28;20480;-78
2023/07/04 10:56:51;;;;;;;7.85;1.70;;;;;;;;;;5110683;28;20052;-79
2023/07/04 10:59:32;;;;;;;6.13;1.85;;;;;;;;;;5109256;28;20377;-77
2023/07/04 11:02:06;;;;;;;7.80;1.90;;;;;;;;;;5076979;28;20040;-77
2023/07/04 11:04:36;;;;;;;8.73;2.00;;;;;;;;;;5101562;28;20451;-78
2023/07/04 11:07:04;;;;;;;9.10;2.20;;;;;;;;;;5087822;28;20063;-76
2023/07/04 11:09:36;;;;;;;8.32;1.85;;;;;;;;;;5112634;28;20044;-76
2023/07/04 11:12:04;;;;;;;10.90;2.40;;;;;;;;;;5094328;28;20090;-76
2023/07/04 11:14:31;;;;;;;8.48;1.95;;;;;;;;;;5101397;28;20093;-76
2023/07/04 11:17:00;;;;;;;10.13;2.30;;;;;;;;;;5092558;28;20055;-76
2023/07/04 11:19:27;;;;;;;8.10;2.30;;;;;;;;;;5092782;28;20073;-76
2023/07/04 11:22:05;;;;;;;8.93;2.17;;;;;;;;;;5092756;28;20044;-76
2023/07/04 11:24:36;;;;;;;8.15;2.40;;;;;;;;;;5092748;28;20060;-76
2023/07/04 11:27:08;;;;;;;5.72;1.88;;;;;;;;;;5093254;28;20071;-77
2023/07/04 11:29:54;;;;;;;8.38;2.33;;;;;;;;;;5092287;28;20443;-78
2023/07/04 11:32:41;;;;;;;10.23;2.08;;;;;;;;;;5102828;28;20047;-75
2023/07/04 11:35:10;;;;;;;7.72;2.20;;;;;;;;;;5071899;28;20044;-76
2023/07/04 11:37:39;;;;;;;8.65;2.40;;;;;;;;;;5092622;28;20043;-76
2023/07/04 11:40:12;;;;;;;6.43;2.17;;;;;;;;;;5092773;28;20054;-76
2023/07/04 11:42:39;;;;;;;5.80;2.30;;;;;;;;;;5106207;28;20050;-76
2023/07/04 11:45:07;;;;;;;9.15;2.03;;;;;;;;;;5109462;28;20044;-76
2023/07/04 11:47:40;;;;;;;8.10;2.10;;;;;;;;;;5090262;28;20044;-76
2023/07/04 11:50:10;;;;;;;10.27;2.22;;;;;;;;;;5112334;28;20054;-76
2023/07/04 11:52:39;;;;;;;8.18;2.28;;;;;;;;;;5111048;28;20133;-76
2023/07/04 11:55:09;;;;;;;8.63;1.90;;;;;;;;;;5094495;28;20460;-79
2023/07/04 11:57:54;;;;;;;6.18;2.00;;;;;;;;;;5112808;28;20067;-75
2023/07/04 12:00:24;;;;;;;7.03;1.80;;;;;;;;;;5112040;28;20126;-75
2023/07/04 12:02:51;;;;;;;9.15;2.50;;;;;;;;;;5112387;28;20503;-75
2023/07/04 12:05:29;;;;;;;6.50;2.15;;;;;;;;;;5110446;28;20443;-75
2023/07/04 12:07:59;;;;;;;10.07;2.10;;;;;;;;;;5111207;28;20040;-74
2023/07/04 12:10:28;;;;;;;7.78;1.77;;;;;;;;;;5112062;28;20048;-74
2023/07/04 12:13:02;;;;;;;5.57;1.73;;;;;;;;;;5093150;28;20097;-74
2023/07/04 12:15:30;;;;;;;7.60;1.90;;;;;;;;;;5112730;28;20395;-74
2023/07/04 12:17:58;;;;;;;7.57;2.00;;;;;;;;;;5098045;28;20458;-75
2023/07/04 12:20:27;;;;;;;13.35;2.20;;;;;;;;;;5097960;28;20043;-76
2023/07/04 12:22:54;;;;;;;7.53;2.10;;;;;;;;;;5106960;28;20058;-73
2023/07/04 12:25:35;;;;;;;10.07;2.13;;;;;;;;;;5093929;28;20048;-73
2023/07/04 12:28:03;;;;;;;6.80;1.95;;;;;;;;;;5095585;28;20078;-73
2023/07/04 12:30:30;;;;;;;9.07;2.08;;;;;;;;;;5106192;28;20372;-72
2023/07/04 12:32:56;;;;;;;6.28;2.03;;;;;;;;;;5105295;28;20040;-73
2023/07/04 12:35:29;;;;;;;6.47;2.00;;;;;;;;;;5101780;28;20036;-73
2023/07/04 12:37:57;;;;;;;6.78;2.20;;;;;;;;;;5107015;28;20043;-73
2023/07/04 12:40:25;;;;;;;9.15;2.20;;;;;;;;;;5082589;28;20471;-73
2023/07/04 12:42:52;;;;;;;7.32;1.88;;;;;;;;;;5098746;28;20071;-75
2023/07/04 12:45:27;;;;;;;8.40;2.00;;;;;;;;;;5102941;28;20051;-72
2023/07/04 12:47:59;;;;;;;7.50;2.00;;;;;;;;;;5108479;28;20040;-72
2023/07/04 12:50:27;;;;;;;6.93;2.08;;;;;;;;;;5107637;28;20424;-73
2023/07/04 12:52:53;;;;;;;6.10;1.80;;;;;;;;;;5112491;28;20135;-73
2023/07/04 12:55:25;;;;;;;8.18;2.13;;;;;;;;;;5087867;28;20047;-74
2023/07/04 12:57:52;;;;;;;7.32;2.00;;;;;;;;;;5094800;28;20135;-74
2023/07/04 13:00:45;;;;;;;10.52;2.13;;;;;;;;;;5094702;28;20068;-72
2023/07/04 13:03:17;;;;;;;9.88;2.30;;;;;;;;;;5073481;28;20048;-75
2023/07/04 13:05:46;;;;;;;7.38;2.15;;;;;;;;;;5109628;28;20133;-75
2023/07/04 13:08:14;;;;;;;6.57;2.10;;;;;;;;;;5115408;28;20044;-74
2023/07/04 13:10:40;;;;;;;9.70;2.10;;;;;;;;;;5114015;28;20058;-73
2023/07/04 13:13:16;;;;;;;8.20;2.25;;;;;;;;;;5085845;28;20041;-74
2023/07/04 13:15:42;;;;;;;8.73;2.33;;;;;;;;;;5093240;28;20044;-74
2023/07/04 13:18:08;;;;;;;7.20;2.35;;;;;;;;;;5074487;28;20047;-74
2023/07/04 13:20:37;;;;;;;10.90;2.03;;;;;;;;;;5094063;28;20377;-74
2023/07/04 13:23:19;;;;;;;8.32;2.10;;;;;;;;;;5108223;28;20130;-75
2023/07/04 13:25:46;;;;;;;7.88;2.10;;;;;;;;;;5104165;28;20067;-75
2023/07/04 13:28:24;;;;;;;9.50;2.33;;;;;;;;;;5114365;28;20071;-73
2023/07/04 13:30:50;;;;;;;7.40;2.28;;;;;;;;;;5113394;28;20138;-73
2023/07/04 13:33:33;;;;;;;7.68;2.53;;;;;;;;;;5099970;28;20388;-72
2023/07/04 13:36:11;;;;;;;8.15;2.28;;;;;;;;;;5121366;28;20102;-72
2023/07/04 13:38:37;;;;;;;8.40;2.47;;;;;;;;;;5115431;28;20500;-73
2023/07/04 13:41:03;;;;;;;11.40;2.38;;;;;;;;;;5096569;28;20051;-72
2023/07/04 13:43:30;;;;;;;6.80;2.10;;;;;;;;;;5114899;28;20043;-72
2023/07/04 13:45:56;;;;;;;10.90;2.22;;;;;;;;;;5114594;28;20039;-72
2023/07/04 13:48:22;;;;;;;8.10;2.17;;;;;;;;;;5114810;28;20135;-72
2023/07/04 13:50:49;;;;;;;6.95;2.10;;;;;;;;;;5114542;28;20046;-72
2023/07/04 13:53:16;;;;;;;5.60;2.20;;;;;;;;;;5114338;28;20480;-72
2023/07/04 13:55:42;;;;;;;6.85;1.92;;;;;;;;;;5114806;28;20043;-72
2023/07/04 13:58:08;;;;;;;8.38;2.20;;;;;;;;;;5114684;28;20036;-72
2023/07/04 14:00:35;;;;;;;4.90;2.00;;;;;;;;;;5078922;28;20039;-72
2023/07/04 14:03:01;;;;;;;7.88;2.10;;;;;;;;;;5114230;28;20079;-72
2023/07/04 14:05:27;;;;;;;6.72;2.10;;;;;;;;;;5114561;28;20036;-72
2023/07/04 14:07:54;;;;;;;7.13;2.13;;;;;;;;;;5114602;28;20039;-72
2023/07/04 14:10:20;;;;;;;10.15;2.50;;;;;;;;;;5113730;28;20048;-72
2023/07/04 14:12:46;;;;;;;9.02;2.53;;;;;;;;;;5114240;28;20059;-72
2023/07/04 14:15:12;;;;;;;10.48;2.25;;;;;;;;;;5095753;28;20044;-72
2023/07/04 14:17:39;;;;;;;7.82;2.40;;;;;;;;;;5114532;28;20404;-72
2023/07/04 14:20:05;;;;;;;8.63;2.22;;;;;;;;;;5095770;28;20047;-72
2023/07/04 14:22:32;;;;;;;9.77;1.98;;;;;;;;;;5114246;28;20055;-72
2023/07/04 14:24:58;;;;;;;7.85;2.17;;;;;;;;;;5095685;28;20047;-72
2023/07/04 14:27:25;;;;;;;10.40;2.42;;;;;;;;;;5114299;28;20047;-72
2023/07/04 14:29:51;;;;;;;9.10;2.35;;;;;;;;;;5095535;28;20050;-72
2023/07/04 14:32:17;;;;;;;8.13;2.30;;;;;;;;;;5114422;28;20127;-73
2023/07/04 14:34:44;;;;;;;8.30;2.20;;;;;;;;;;5113803;28;20083;-74
2023/07/04 14:37:10;;;;;;;9.80;2.65;;;;;;;;;;5113948;28;20043;-72
2023/07/04 14:39:36;;;;;;;8.25;2.53;;;;;;;;;;5113262;28;20388;-72
2023/07/04 14:42:04;;;;;;;8.27;2.45;;;;;;;;;;5095243;28;20066;-71
2023/07/04 14:44:30;;;;;;;6.60;2.10;;;;;;;;;;5111945;28;20044;-71
2023/07/04 14:46:56;;;;;;;8.18;2.25;;;;;;;;;;5094918;28;20169;-73